createdAt,value
2017-05-10T00:00:10.882Z,7.42
2017-05-10T00:00:51.351Z,7.39
2017-05-10T00:01:31.804Z,7.42
2017-05-10T00:02:12.299Z,7.48
2017-05-10T00:02:52.799Z,7.5
2017-05-10T00:03:33.275Z,7.42
2017-05-10T00:04:13.768Z,7.51
2017-05-10T00:04:54.235Z,7.54
2017-05-10T00:05:34.753Z,7.48
2017-05-10T00:06:15.201Z,7.63
2017-05-10T00:06:55.685Z,7.57
2017-05-10T00:07:36.172Z,7.67
2017-05-10T00:08:16.642Z,7.67
2017-05-10T00:08:57.093Z,7.67
2017-05-10T00:09:37.609Z,7.7
2017-05-10T00:10:18.076Z,7.7
2017-05-10T00:10:58.587Z,7.69
2017-05-10T00:11:39.083Z,7.73
2017-05-10T00:12:19.519Z,7.72
2017-05-10T00:13:00.002Z,7.7
2017-05-10T00:13:40.499Z,7.73
2017-05-10T00:14:20.980Z,7.7
2017-05-10T00:15:01.464Z,7.8
2017-05-10T00:15:41.959Z,7.8
2017-05-10T00:16:22.424Z,7.77
2017-05-10T00:17:02.892Z,7.8
2017-05-10T00:17:43.355Z,7.83
2017-05-10T00:18:23.831Z,7.77
2017-05-10T00:19:04.303Z,7.83
2017-05-10T00:19:44.797Z,7.93
2017-05-10T00:20:25.268Z,7.94
2017-05-10T00:21:05.751Z,7.88
2017-05-10T00:21:46.247Z,7.91
2017-05-10T00:22:26.728Z,7.95
2017-05-10T00:23:07.189Z,7.93
2017-05-10T00:23:47.667Z,7.82
2017-05-10T00:24:28.140Z,8.01
2017-05-10T00:25:08.631Z,7.91
2017-05-10T00:25:49.117Z,8
2017-05-10T00:26:29.614Z,8.01
2017-05-10T00:27:10.068Z,7.91
2017-05-10T00:27:50.554Z,7.94
2017-05-10T00:28:31.049Z,7.98
2017-05-10T00:29:11.487Z,7.9
2017-05-10T00:29:51.961Z,7.93
2017-05-10T00:30:32.452Z,7.87
2017-05-10T00:31:12.910Z,7.87
2017-05-10T00:31:53.383Z,7.91
2017-05-10T00:32:33.899Z,8
2017-05-10T00:33:14.456Z,7.95
2017-05-10T00:33:54.935Z,7.93
2017-05-10T00:34:35.423Z,8.01
2017-05-10T00:35:15.920Z,8.05
2017-05-10T00:35:56.386Z,7.94
2017-05-10T00:36:36.847Z,8.03
2017-05-10T00:37:17.324Z,7.98
2017-05-10T00:37:57.826Z,7.98
2017-05-10T00:38:38.334Z,8.01
2017-05-10T00:39:18.823Z,7.95
2017-05-10T00:39:59.375Z,8.01
2017-05-10T00:40:39.836Z,7.98
2017-05-10T00:41:20.304Z,7.97
2017-05-10T00:42:00.821Z,8.01
2017-05-10T00:42:41.285Z,8.06
2017-05-10T00:43:21.763Z,8.03
2017-05-10T00:44:02.254Z,7.94
2017-05-10T00:44:42.737Z,8
2017-05-10T00:45:23.230Z,7.97
2017-05-10T00:46:03.686Z,7.97
2017-05-10T00:46:44.169Z,7.79
2017-05-10T00:47:24.623Z,7.75
2017-05-10T00:48:05.090Z,7.67
2017-05-10T00:48:45.580Z,7.53
2017-05-10T00:49:26.067Z,7.48
2017-05-10T00:50:06.540Z,7.45
2017-05-10T00:50:47.046Z,7.38
2017-05-10T00:51:27.521Z,7.38
2017-05-10T00:52:07.971Z,7.21
2017-05-10T00:52:48.483Z,7.24
2017-05-10T00:53:28.974Z,7.25
2017-05-10T00:54:09.423Z,7.2
2017-05-10T00:54:49.932Z,7.07
2017-05-10T00:55:30.403Z,7
2017-05-10T00:56:10.860Z,7
2017-05-10T00:56:51.358Z,7.03
2017-05-10T00:57:31.842Z,6.99
2017-05-10T00:58:12.311Z,7.03
2017-05-10T00:58:52.787Z,6.99
2017-05-10T00:59:33.277Z,7
2017-05-10T01:00:13.739Z,7.03
2017-05-10T01:00:54.259Z,7.06
2017-05-10T01:01:34.725Z,7.11
2017-05-10T01:02:15.197Z,6.96
2017-05-10T01:02:55.684Z,7
2017-05-10T01:03:36.178Z,7.02
2017-05-10T01:04:16.643Z,7
2017-05-10T01:04:57.122Z,7.05
2017-05-10T01:05:37.615Z,6.96
2017-05-10T01:06:18.118Z,7
2017-05-10T01:06:58.605Z,7.02
2017-05-10T01:07:39.082Z,7.1
2017-05-10T01:08:19.571Z,7.14
2017-05-10T01:09:00.062Z,7.18
2017-05-10T01:09:40.523Z,7.18
2017-05-10T01:10:21.009Z,7.14
2017-05-10T01:11:01.454Z,7.18
2017-05-10T01:11:41.979Z,7.17
2017-05-10T01:12:22.473Z,7.21
2017-05-10T01:13:02.962Z,7.25
2017-05-10T01:13:43.430Z,7.28
2017-05-10T01:14:23.900Z,7.25
2017-05-10T01:15:04.391Z,7.25
2017-05-10T01:15:44.870Z,7.2
2017-05-10T01:16:25.376Z,7.36
2017-05-10T01:17:05.834Z,7.33
2017-05-10T01:17:46.338Z,7.33
2017-05-10T01:18:26.793Z,7.25
2017-05-10T01:19:07.280Z,7.25
2017-05-10T01:19:47.756Z,7.23
2017-05-10T01:20:28.206Z,7.31
2017-05-10T01:21:08.699Z,7.31
2017-05-10T01:21:49.187Z,7.24
2017-05-10T01:22:29.670Z,7.25
2017-05-10T01:23:10.163Z,7.25
2017-05-10T01:23:50.636Z,7.33
2017-05-10T01:24:31.116Z,7.38
2017-05-10T01:25:11.619Z,7.4
2017-05-10T01:25:52.097Z,7.36
2017-05-10T01:26:32.558Z,7.4
2017-05-10T01:27:13.080Z,7.39
2017-05-10T01:27:53.546Z,7.36
2017-05-10T01:28:34.025Z,7.39
2017-05-10T01:29:14.527Z,7.42
2017-05-10T01:29:55.002Z,7.48
2017-05-10T01:30:35.479Z,7.56
2017-05-10T01:31:15.951Z,7.45
2017-05-10T01:31:56.449Z,7.48
2017-05-10T01:32:36.903Z,7.5
2017-05-10T01:33:17.361Z,7.5
2017-05-10T01:33:57.843Z,7.51
2017-05-10T01:34:38.289Z,7.51
2017-05-10T01:35:18.778Z,7.54
2017-05-10T01:35:59.279Z,7.67
2017-05-10T01:36:39.753Z,7.56
2017-05-10T01:37:20.249Z,7.66
2017-05-10T01:38:00.727Z,7.51
2017-05-10T01:38:41.215Z,7.6
2017-05-10T01:39:21.699Z,7.53
2017-05-10T01:40:02.177Z,7.61
2017-05-10T01:40:42.657Z,7.56
2017-05-10T01:41:23.146Z,7.6
2017-05-10T01:42:03.631Z,7.67
2017-05-10T01:42:44.137Z,7.5
2017-05-10T01:43:24.690Z,7.6
2017-05-10T01:44:05.179Z,7.63
2017-05-10T01:44:45.656Z,7.51
2017-05-10T01:45:26.165Z,7.54
2017-05-10T01:46:06.656Z,7.51
2017-05-10T01:46:47.116Z,7.5
2017-05-10T01:47:27.637Z,7.5
2017-05-10T01:48:08.099Z,7.48
2017-05-10T01:48:48.572Z,7.48
2017-05-10T01:49:29.081Z,7.61
2017-05-10T01:50:09.568Z,7.6
2017-05-10T01:50:50.069Z,7.63
2017-05-10T01:51:30.533Z,7.6
2017-05-10T01:52:11.017Z,7.66
2017-05-10T01:52:51.514Z,7.67
2017-05-10T01:53:32.033Z,7.67
2017-05-10T01:54:12.489Z,7.61
2017-05-10T01:54:52.962Z,7.66
2017-05-10T01:55:33.466Z,7.69
2017-05-10T01:56:13.947Z,7.66
2017-05-10T01:56:54.420Z,7.63
2017-05-10T01:57:34.879Z,7.66
2017-05-10T01:58:15.359Z,7.73
2017-05-10T01:58:55.803Z,7.76
2017-05-10T01:59:36.313Z,7.67
2017-05-10T02:00:16.818Z,7.72
2017-05-10T02:00:57.298Z,7.79
2017-05-10T02:01:37.800Z,7.69
2017-05-10T02:02:18.304Z,7.76
2017-05-10T02:02:58.750Z,7.76
2017-05-10T02:03:39.222Z,7.77
2017-05-10T02:04:19.694Z,7.66
2017-05-10T02:05:00.207Z,7.7
2017-05-10T02:05:40.686Z,7.69
2017-05-10T02:06:21.188Z,7.76
2017-05-10T02:07:01.664Z,7.75
2017-05-10T02:07:42.174Z,7.75
2017-05-10T02:08:22.634Z,7.72
2017-05-10T02:09:03.130Z,7.7
2017-05-10T02:09:43.620Z,7.69
2017-05-10T02:10:24.125Z,7.7
2017-05-10T02:11:04.546Z,7.75
2017-05-10T02:11:45.036Z,7.73
2017-05-10T02:12:25.523Z,7.72
2017-05-10T02:13:06.038Z,7.77
2017-05-10T02:13:46.493Z,7.72
2017-05-10T02:14:26.978Z,7.67
2017-05-10T02:15:07.457Z,7.66
2017-05-10T02:15:47.932Z,7.67
2017-05-10T02:16:28.408Z,7.63
2017-05-10T02:17:08.920Z,7.63
2017-05-10T02:17:49.401Z,7.61
2017-05-10T02:18:29.910Z,7.5
2017-05-10T02:19:10.365Z,7.5
2017-05-10T02:19:50.842Z,7.48
2017-05-10T02:20:31.313Z,7.47
2017-05-10T02:21:11.854Z,7.43
2017-05-10T02:21:52.311Z,7.4
2017-05-10T02:22:32.751Z,7.36
2017-05-10T02:23:13.273Z,7.38
2017-05-10T02:23:53.719Z,7.31
2017-05-10T02:24:34.208Z,7.38
2017-05-10T02:25:14.707Z,7.29
2017-05-10T02:25:55.195Z,7.28
2017-05-10T02:26:35.673Z,7.24
2017-05-10T02:27:16.171Z,7.33
2017-05-10T02:27:56.629Z,7.24
2017-05-10T02:28:37.156Z,7.25
2017-05-10T02:29:17.659Z,7.28
2017-05-10T02:29:58.216Z,7.28
2017-05-10T02:30:38.723Z,7.24
2017-05-10T02:31:19.229Z,7.25
2017-05-10T02:31:59.689Z,7.28
2017-05-10T02:32:40.175Z,7.25
2017-05-10T02:33:20.644Z,7.25
2017-05-10T02:34:01.141Z,7.29
2017-05-10T02:34:41.618Z,7.29
2017-05-10T02:35:22.094Z,7.29
2017-05-10T02:36:02.558Z,7.25
2017-05-10T02:36:43.039Z,7.25
2017-05-10T02:37:23.528Z,7.28
2017-05-10T02:38:04.018Z,7.36
2017-05-10T02:38:44.518Z,7.24
2017-05-10T02:39:25.023Z,7.31
2017-05-10T02:40:05.489Z,7.21
2017-05-10T02:40:45.960Z,7.1
2017-05-10T02:41:26.434Z,7.14
2017-05-10T02:42:06.893Z,7
2017-05-10T02:42:47.378Z,7.02
2017-05-10T02:43:27.841Z,7.06
2017-05-10T02:44:08.341Z,6.99
2017-05-10T02:44:48.853Z,6.89
2017-05-10T02:45:29.317Z,6.89
2017-05-10T02:46:09.798Z,6.85
2017-05-10T02:46:50.304Z,6.88
2017-05-10T02:47:30.778Z,6.93
2017-05-10T02:48:11.235Z,6.93
2017-05-10T02:48:51.698Z,6.99
2017-05-10T02:49:32.177Z,6.88
2017-05-10T02:50:12.628Z,6.95
2017-05-10T02:50:53.101Z,6.87
2017-05-10T02:51:33.617Z,6.92
2017-05-10T02:52:14.104Z,6.89
2017-05-10T02:52:54.574Z,6.88
2017-05-10T02:53:35.050Z,6.89
2017-05-10T02:54:15.535Z,6.87
2017-05-10T02:54:56.025Z,6.93
2017-05-10T02:55:36.543Z,6.89
2017-05-10T02:56:17.053Z,6.78
2017-05-10T02:56:57.501Z,6.89
2017-05-10T02:57:37.973Z,6.87
2017-05-10T02:58:18.429Z,6.81
2017-05-10T02:58:58.919Z,6.87
2017-05-10T02:59:39.385Z,6.85
2017-05-10T03:00:19.884Z,6.82
2017-05-10T03:01:00.372Z,6.75
2017-05-10T03:01:40.884Z,6.84
2017-05-10T03:02:21.347Z,6.77
2017-05-10T03:03:01.815Z,6.77
2017-05-10T03:03:42.311Z,6.81
2017-05-10T03:04:22.829Z,6.78
2017-05-10T03:05:03.308Z,6.74
2017-05-10T03:05:43.783Z,6.75
2017-05-10T03:06:24.275Z,6.7
2017-05-10T03:07:04.740Z,6.72
2017-05-10T03:07:45.254Z,6.72
2017-05-10T03:08:25.717Z,6.7
2017-05-10T03:09:06.189Z,6.78
2017-05-10T03:09:46.662Z,6.67
2017-05-10T03:10:27.128Z,6.75
2017-05-10T03:11:07.640Z,6.6
2017-05-10T03:11:48.104Z,6.62
2017-05-10T03:12:28.589Z,6.63
2017-05-10T03:13:09.053Z,6.56
2017-05-10T03:13:49.565Z,6.57
2017-05-10T03:14:30.051Z,6.6
2017-05-10T03:15:10.540Z,6.63
2017-05-10T03:15:50.990Z,6.56
2017-05-10T03:16:31.495Z,6.57
2017-05-10T03:17:12.011Z,6.64
2017-05-10T03:17:52.465Z,6.62
2017-05-10T03:18:32.960Z,6.62
2017-05-10T03:19:13.422Z,6.62
2017-05-10T03:19:53.902Z,6.69
2017-05-10T03:20:34.423Z,6.72
2017-05-10T03:21:14.874Z,6.62
2017-05-10T03:21:55.386Z,6.67
2017-05-10T03:22:35.834Z,6.66
2017-05-10T03:23:16.323Z,6.59
2017-05-10T03:23:56.797Z,6.56
2017-05-10T03:24:37.287Z,6.59
2017-05-10T03:25:17.768Z,6.66
2017-05-10T03:25:58.281Z,6.66
2017-05-10T03:26:38.756Z,6.59
2017-05-10T03:27:19.251Z,6.62
2017-05-10T03:27:59.726Z,6.62
2017-05-10T03:28:40.240Z,6.64
2017-05-10T03:29:20.685Z,6.67
2017-05-10T03:30:01.195Z,6.64
2017-05-10T03:30:41.662Z,6.72
2017-05-10T03:31:22.152Z,6.7
2017-05-10T03:32:02.634Z,6.78
2017-05-10T03:32:43.151Z,6.72
2017-05-10T03:33:23.611Z,6.72
2017-05-10T03:34:04.109Z,6.74
2017-05-10T03:34:44.564Z,6.77
2017-05-10T03:35:25.022Z,6.74
2017-05-10T03:36:05.510Z,6.7
2017-05-10T03:36:46.003Z,6.69
2017-05-10T03:37:26.484Z,6.74
2017-05-10T03:38:06.945Z,6.72
2017-05-10T03:38:47.436Z,6.64
2017-05-10T03:39:27.914Z,6.75
2017-05-10T03:40:08.405Z,6.77
2017-05-10T03:40:48.865Z,6.79
2017-05-10T03:41:29.358Z,6.74
2017-05-10T03:42:09.829Z,6.77
2017-05-10T03:42:50.312Z,6.74
2017-05-10T03:43:30.793Z,6.81
2017-05-10T03:44:11.263Z,6.87
2017-05-10T03:44:51.728Z,6.87
2017-05-10T03:45:32.224Z,6.79
2017-05-10T03:46:12.679Z,6.85
2017-05-10T03:46:53.166Z,6.84
2017-05-10T03:47:33.693Z,6.85
2017-05-10T03:48:14.168Z,6.96
2017-05-10T03:48:54.644Z,6.87
2017-05-10T03:49:35.153Z,6.93
2017-05-10T03:50:15.625Z,6.87
2017-05-10T03:50:56.129Z,6.96
2017-05-10T03:51:36.585Z,6.89
2017-05-10T03:52:17.072Z,6.89
2017-05-10T03:52:57.522Z,6.89
2017-05-10T03:53:37.986Z,6.96
2017-05-10T03:54:18.503Z,6.99
2017-05-10T03:54:58.997Z,6.97
2017-05-10T03:55:39.450Z,7.02
2017-05-10T03:56:19.964Z,7.02
2017-05-10T03:57:00.423Z,7.02
2017-05-10T03:57:40.927Z,7
2017-05-10T03:58:21.374Z,7.02
2017-05-10T03:59:01.832Z,6.99
2017-05-10T03:59:42.301Z,6.99
2017-05-10T04:00:22.779Z,7.02
2017-05-10T04:01:03.282Z,6.97
2017-05-10T04:01:43.760Z,7.14
2017-05-10T04:02:24.201Z,7.14
2017-05-10T04:03:04.682Z,7.13
2017-05-10T04:03:45.147Z,7.15
2017-05-10T04:04:25.616Z,7.13
2017-05-10T04:05:06.096Z,7.13
2017-05-10T04:05:46.598Z,7.23
2017-05-10T04:06:27.072Z,7.25
2017-05-10T04:07:07.565Z,7.31
2017-05-10T04:07:48.053Z,7.31
2017-05-10T04:08:28.509Z,7.33
2017-05-10T04:09:08.991Z,7.33
2017-05-10T04:09:49.480Z,7.33
2017-05-10T04:10:29.946Z,7.39
2017-05-10T04:11:10.417Z,7.35
2017-05-10T04:11:50.868Z,7.4
2017-05-10T04:12:31.370Z,7.38
2017-05-10T04:13:11.861Z,7.43
2017-05-10T04:13:52.342Z,7.47
2017-05-10T04:15:40.699Z,7.54
2017-05-10T04:16:21.829Z,7.51
2017-05-10T04:17:02.273Z,7.51
2017-05-10T04:17:42.731Z,7.51
2017-05-10T04:18:23.963Z,7.51
2017-05-10T04:19:04.417Z,7.48
2017-05-10T04:19:44.988Z,7.5
2017-05-10T04:20:25.436Z,7.61
2017-05-10T04:21:06.092Z,7.51
2017-05-10T04:21:46.745Z,7.58
2017-05-10T04:22:27.206Z,7.6
2017-05-10T04:23:07.865Z,7.61
2017-05-10T04:23:48.438Z,7.67
2017-05-10T04:24:29.026Z,7.69
2017-05-10T04:25:09.523Z,7.6
2017-05-10T04:25:49.984Z,7.61
2017-05-10T04:26:30.487Z,7.63
2017-05-10T04:27:10.957Z,7.66
2017-05-10T04:27:51.434Z,7.69
2017-05-10T04:28:31.925Z,7.63
2017-05-10T04:29:12.393Z,7.7
2017-05-10T04:29:52.887Z,7.69
2017-05-10T04:30:33.378Z,7.66
2017-05-10T04:31:13.880Z,7.73
2017-05-10T04:31:54.326Z,7.7
2017-05-10T04:32:34.816Z,7.69
2017-05-10T04:33:15.303Z,7.77
2017-05-10T04:33:55.778Z,7.72
2017-05-10T04:34:36.293Z,7.67
2017-05-10T04:35:16.768Z,7.63
2017-05-10T04:35:57.261Z,7.43
2017-05-10T04:36:37.771Z,7.38
2017-05-10T04:37:18.214Z,7.38
2017-05-10T04:37:58.703Z,7.39
2017-05-10T04:38:39.175Z,7.28
2017-05-10T04:39:19.657Z,7.29
2017-05-10T04:40:00.238Z,7.24
2017-05-10T04:40:40.705Z,7.25
2017-05-10T04:41:21.202Z,7.21
2017-05-10T04:42:01.761Z,7.23
2017-05-10T04:42:42.278Z,7.13
2017-05-10T04:43:23.026Z,7.11
2017-05-10T04:44:03.668Z,7.11
2017-05-10T04:44:44.144Z,7.15
2017-05-10T04:45:24.584Z,7.14
2017-05-10T04:46:05.129Z,7.13
2017-05-10T04:46:45.615Z,7.11
2017-05-10T04:47:26.102Z,7.02
2017-05-10T04:48:06.577Z,7.02
2017-05-10T04:48:47.136Z,7
2017-05-10T04:49:27.635Z,6.97
2017-05-10T04:50:08.137Z,7.03
2017-05-10T04:50:48.641Z,6.97
2017-05-10T04:51:29.101Z,6.97
2017-05-10T04:52:09.613Z,6.89
2017-05-10T04:52:50.092Z,6.88
2017-05-10T04:53:30.677Z,6.92
2017-05-10T04:54:11.109Z,6.88
2017-05-10T04:54:51.667Z,6.89
2017-05-10T04:55:32.170Z,6.88
2017-05-10T04:56:12.633Z,6.93
2017-05-10T04:56:53.165Z,6.89
2017-05-10T04:57:33.679Z,6.88
2017-05-10T04:58:14.281Z,6.88
2017-05-10T04:58:54.758Z,6.95
2017-05-10T04:59:35.246Z,6.93
2017-05-10T05:00:15.736Z,6.95
2017-05-10T05:00:56.242Z,6.99
2017-05-10T05:01:36.743Z,6.81
2017-05-10T05:02:17.246Z,6.96
2017-05-10T05:02:57.697Z,6.81
2017-05-10T05:03:38.265Z,6.95
2017-05-10T05:04:18.784Z,6.92
2017-05-10T05:04:59.238Z,6.88
2017-05-10T05:05:39.686Z,6.87
2017-05-10T05:06:20.185Z,6.95
2017-05-10T05:07:00.649Z,6.95
2017-05-10T05:07:41.123Z,7.02
2017-05-10T05:08:21.646Z,7.05
2017-05-10T05:09:02.095Z,6.99
2017-05-10T05:09:42.607Z,7.02
2017-05-10T05:10:23.062Z,7.07
2017-05-10T05:11:03.496Z,6.95
2017-05-10T05:11:43.978Z,6.99
2017-05-10T05:12:24.454Z,6.99
2017-05-10T05:13:04.907Z,7.02
2017-05-10T05:13:45.365Z,7.11
2017-05-10T05:14:25.910Z,7.1
2017-05-10T05:15:06.365Z,7.06
2017-05-10T05:15:46.802Z,6.96
2017-05-10T05:16:27.313Z,6.97
2017-05-10T05:17:07.785Z,6.93
2017-05-10T05:17:48.260Z,7.02
2017-05-10T05:18:28.720Z,7.02
2017-05-10T05:19:09.215Z,7.02
2017-05-10T05:19:49.699Z,7.06
2017-05-10T05:20:30.143Z,7
2017-05-10T05:21:10.663Z,7.06
2017-05-10T05:21:51.132Z,7.02
2017-05-10T05:22:31.585Z,7.06
2017-05-10T05:23:12.045Z,7
2017-05-10T05:23:52.530Z,6.97
2017-05-10T05:24:32.987Z,7.02
2017-05-10T05:25:13.477Z,6.99
2017-05-10T05:25:53.976Z,7.03
2017-05-10T05:26:34.415Z,6.93
2017-05-10T05:27:14.889Z,6.92
2017-05-10T05:27:55.376Z,6.92
2017-05-10T05:28:35.841Z,6.88
2017-05-10T05:29:16.331Z,6.96
2017-05-10T05:29:56.810Z,6.96
2017-05-10T05:30:37.265Z,6.89
2017-05-10T05:31:17.831Z,7.02
2017-05-10T05:31:58.234Z,7.03
2017-05-10T05:32:38.794Z,6.96
2017-05-10T05:33:19.270Z,6.99
2017-05-10T05:33:59.762Z,7.02
2017-05-10T05:34:40.184Z,7.03
2017-05-10T05:35:20.660Z,7.15
2017-05-10T05:36:01.128Z,7.15
2017-05-10T05:36:41.592Z,7.23
2017-05-10T05:37:22.236Z,7.29
2017-05-10T05:38:02.728Z,7.35
2017-05-10T05:38:43.156Z,7.25
2017-05-10T05:39:23.632Z,7.29
2017-05-10T05:40:04.121Z,7.36
2017-05-10T05:40:44.671Z,7.4
2017-05-10T05:41:25.136Z,7.48
2017-05-10T05:42:05.871Z,7.48
2017-05-10T05:42:46.306Z,7.5
2017-05-10T05:43:26.890Z,7.6
2017-05-10T05:44:07.388Z,7.66
2017-05-10T05:44:47.921Z,7.7
2017-05-10T05:45:28.740Z,7.7
2017-05-10T05:46:09.663Z,7.72
2017-05-10T05:46:50.174Z,7.72
2017-05-10T05:47:30.728Z,7.72
2017-05-10T05:48:11.317Z,7.8
2017-05-10T05:48:51.833Z,7.72
2017-05-10T05:49:32.328Z,7.77
2017-05-10T05:50:12.822Z,7.82
2017-05-10T05:50:53.407Z,7.77
2017-05-10T05:51:33.891Z,7.8
2017-05-10T05:52:14.375Z,7.77
2017-05-10T05:52:54.876Z,7.82
2017-05-10T05:53:35.348Z,7.72
2017-05-10T05:54:15.819Z,7.77
2017-05-10T05:54:56.315Z,7.69
2017-05-10T05:55:36.787Z,7.7
2017-05-10T05:56:17.279Z,7.6
2017-05-10T05:56:57.790Z,7.63
2017-05-10T05:57:38.273Z,7.67
2017-05-10T05:58:18.759Z,7.63
2017-05-10T05:58:59.336Z,7.6
2017-05-10T05:59:39.814Z,7.72
2017-05-10T06:00:20.317Z,7.72
2017-05-10T06:01:00.747Z,7.79
2017-05-10T06:01:41.215Z,7.66
2017-05-10T06:02:21.713Z,7.73
2017-05-10T06:03:02.226Z,7.77
2017-05-10T06:03:42.685Z,7.72
2017-05-10T06:04:23.428Z,7.63
2017-05-10T06:05:03.771Z,7.75
2017-05-10T06:05:44.225Z,7.66
2017-05-10T06:06:24.767Z,7.51
2017-05-10T06:07:05.271Z,7.63
2017-05-10T06:07:45.775Z,7.6
2017-05-10T06:08:26.228Z,7.66
2017-05-10T06:09:06.748Z,7.7
2017-05-10T06:09:47.207Z,7.69
2017-05-10T06:10:27.630Z,7.63
2017-05-10T06:11:08.133Z,7.7
2017-05-10T06:11:48.628Z,7.72
2017-05-10T06:12:29.114Z,7.7
2017-05-10T06:13:09.588Z,7.72
2017-05-10T06:13:50.074Z,7.76
2017-05-10T06:14:30.543Z,7.7
2017-05-10T06:15:11.009Z,7.8
2017-05-10T06:15:51.518Z,7.77
2017-05-10T06:16:31.998Z,7.85
2017-05-10T06:17:12.484Z,7.83
2017-05-10T06:17:52.948Z,7.87
2017-05-10T06:18:33.429Z,7.95
2017-05-10T06:19:13.974Z,8
2017-05-10T06:19:54.438Z,7.87
2017-05-10T06:20:34.971Z,7.94
2017-05-10T06:21:15.362Z,8.01
2017-05-10T06:21:55.865Z,8.05
2017-05-10T06:22:36.348Z,8.09
2017-05-10T06:23:16.819Z,8.01
2017-05-10T06:23:57.272Z,8.12
2017-05-10T06:24:37.870Z,8.09
2017-05-10T06:25:18.391Z,8.15
2017-05-10T06:25:58.866Z,8.28
2017-05-10T06:26:39.352Z,8.24
2017-05-10T06:27:19.844Z,8.28
2017-05-10T06:28:00.348Z,8.34
2017-05-10T06:28:40.837Z,8.31
2017-05-10T06:29:21.342Z,8.41
2017-05-10T06:30:01.768Z,8.44
2017-05-10T06:30:42.315Z,8.48
2017-05-10T06:31:22.723Z,8.46
2017-05-10T06:32:03.227Z,8.48
2017-05-10T06:32:43.703Z,8.55
2017-05-10T06:33:24.203Z,8.58
2017-05-10T06:34:04.723Z,8.51
2017-05-10T06:34:45.239Z,8.51
2017-05-10T06:35:25.696Z,8.52
2017-05-10T06:36:06.216Z,8.56
2017-05-10T06:36:46.688Z,8.6
2017-05-10T06:37:27.206Z,8.71
2017-05-10T06:38:07.590Z,8.79
2017-05-10T06:38:48.050Z,8.78
2017-05-10T06:39:28.672Z,8.78
2017-05-10T06:40:09.134Z,8.79
2017-05-10T06:40:49.760Z,8.88
2017-05-10T06:41:30.231Z,8.87
2017-05-10T06:42:10.710Z,8.79
2017-05-10T06:42:51.225Z,8.82
2017-05-10T06:43:34.966Z,8.79
2017-05-10T06:44:15.457Z,8.87
2017-05-10T06:44:55.971Z,8.82
2017-05-10T06:45:36.401Z,8.81
2017-05-10T06:46:16.852Z,8.71
2017-05-10T06:46:57.397Z,8.6
2017-05-10T06:47:37.844Z,8.61
2017-05-10T06:48:18.363Z,8.6
2017-05-10T06:48:58.841Z,8.52
2017-05-10T06:49:39.609Z,8.46
2017-05-10T06:50:20.168Z,8.49
2017-05-10T06:51:00.625Z,8.37
2017-05-10T06:51:41.152Z,8.42
2017-05-10T06:52:21.596Z,8.42
2017-05-10T06:53:02.053Z,8.38
2017-05-10T06:53:42.603Z,8.48
2017-05-10T06:54:23.101Z,8.53
2017-05-10T06:55:03.601Z,8.6
2017-05-10T06:55:44.089Z,8.64
2017-05-10T06:56:24.641Z,8.66
2017-05-10T06:57:05.269Z,8.66
2017-05-10T06:57:45.872Z,8.7
2017-05-10T06:58:26.512Z,8.66
2017-05-10T06:59:06.891Z,8.51
2017-05-10T06:59:47.389Z,8.69
2017-05-10T07:00:27.864Z,8.69
2017-05-10T07:01:08.335Z,8.7
2017-05-10T07:01:48.819Z,8.76
2017-05-10T07:02:29.316Z,8.71
2017-05-10T07:03:09.992Z,8.7
2017-05-10T07:03:51.238Z,8.69
2017-05-10T07:04:32.439Z,8.73
2017-05-10T07:05:13.394Z,8.63
2017-05-10T07:05:54.410Z,8.67
2017-05-10T07:06:35.077Z,8.71
2017-05-10T07:07:15.628Z,8.79
2017-05-10T07:07:56.213Z,8.81
2017-05-10T07:08:36.726Z,8.84
2017-05-10T07:09:17.386Z,8.84
2017-05-10T07:09:57.910Z,8.89
2017-05-10T07:10:38.319Z,8.85
2017-05-10T07:11:18.848Z,8.92
2017-05-10T07:11:59.274Z,9
2017-05-10T07:12:39.791Z,9.02
2017-05-10T07:13:20.334Z,8.89
2017-05-10T07:14:00.810Z,9.02
2017-05-10T07:14:41.279Z,8.99
2017-05-10T07:15:22.623Z,8.89
2017-05-10T07:16:03.124Z,8.97
2017-05-10T07:16:43.657Z,8.94
2017-05-10T07:17:24.120Z,8.84
2017-05-10T07:18:04.727Z,8.91
2017-05-10T07:18:45.429Z,8.88
2017-05-10T07:19:25.878Z,8.92
2017-05-10T07:20:06.411Z,8.92
2017-05-10T07:20:46.847Z,8.97
2017-05-10T07:21:27.332Z,9.02
2017-05-10T07:22:07.878Z,9.03
2017-05-10T07:22:48.377Z,9.13
2017-05-10T07:23:28.775Z,9.19
2017-05-10T07:24:09.279Z,9.22
2017-05-10T07:24:50.613Z,9.22
2017-05-10T07:25:31.077Z,9.26
2017-05-10T07:26:12.162Z,9.37
2017-05-10T07:26:52.459Z,9.4
2017-05-10T07:27:33.054Z,9.41
2017-05-10T07:28:20.408Z,9.36
2017-05-10T07:29:00.948Z,9.51
2017-05-10T07:29:41.401Z,9.46
2017-05-10T07:30:22.736Z,9.48
2017-05-10T07:31:03.175Z,9.64
2017-05-10T07:31:43.782Z,9.65
2017-05-10T07:32:24.529Z,9.64
2017-05-10T07:33:05.010Z,9.58
2017-05-10T07:33:45.513Z,9.61
2017-05-10T07:34:26.032Z,9.61
2017-05-10T07:35:06.575Z,9.48
2017-05-10T07:35:47.312Z,9.66
2017-05-10T07:36:27.828Z,9.64
2017-05-10T07:37:08.283Z,9.73
2017-05-10T07:37:48.859Z,9.66
2017-05-10T07:38:29.341Z,9.64
2017-05-10T07:39:10.120Z,9.68
2017-05-10T07:39:50.554Z,9.64
2017-05-10T07:40:31.245Z,9.65
2017-05-10T07:41:11.648Z,9.62
2017-05-10T07:41:52.130Z,9.54
2017-05-10T07:42:32.610Z,9.48
2017-05-10T07:43:13.128Z,9.56
2017-05-10T07:43:53.741Z,9.51
2017-05-10T07:44:34.350Z,9.46
2017-05-10T07:45:14.838Z,9.48
2017-05-10T07:45:55.306Z,9.44
2017-05-10T07:46:35.764Z,9.48
2017-05-10T07:47:16.231Z,9.51
2017-05-10T07:47:56.765Z,9.51
2017-05-10T07:48:37.385Z,9.39
2017-05-10T07:49:17.851Z,9.41
2017-05-10T07:49:58.322Z,9.4
2017-05-10T07:50:38.842Z,9.39
2017-05-10T07:51:19.299Z,9.43
2017-05-10T07:51:59.799Z,9.39
2017-05-10T07:52:40.295Z,9.43
2017-05-10T07:53:20.784Z,9.44
2017-05-10T07:54:01.297Z,9.46
2017-05-10T07:54:41.986Z,9.51
2017-05-10T07:55:22.697Z,9.58
2017-05-10T07:56:03.337Z,9.55
2017-05-10T07:56:43.810Z,9.69
2017-05-10T07:57:24.297Z,9.66
2017-05-10T07:58:04.864Z,9.72
2017-05-10T07:58:45.369Z,9.79
2017-05-10T07:59:25.856Z,9.83
2017-05-10T08:00:06.310Z,9.84
2017-05-10T08:00:46.967Z,9.84
2017-05-10T08:01:27.493Z,9.87
2017-05-10T08:02:07.943Z,10.04
2017-05-10T08:02:48.415Z,10.01
2017-05-10T08:03:28.890Z,10.02
2017-05-10T08:04:09.484Z,10.09
2017-05-10T08:04:50.954Z,10.2
2017-05-10T08:05:31.420Z,10.23
2017-05-10T08:06:12.270Z,10.23
2017-05-10T08:06:52.666Z,10.3
2017-05-10T08:07:33.262Z,10.3
2017-05-10T08:08:14.031Z,10.25
2017-05-10T08:08:54.558Z,10.25
2017-05-10T08:09:35.014Z,10.23
2017-05-10T08:10:15.645Z,10.23
2017-05-10T08:10:56.023Z,10.16
2017-05-10T08:11:36.532Z,10.13
2017-05-10T08:12:16.996Z,10.09
2017-05-10T08:12:57.592Z,10.04
2017-05-10T08:13:39.256Z,10.15
2017-05-10T08:14:19.710Z,10.12
2017-05-10T08:15:00.309Z,10.1
2017-05-10T08:15:40.768Z,10.17
2017-05-10T08:16:21.246Z,10.05
2017-05-10T08:17:01.749Z,10.05
2017-05-10T08:17:42.311Z,9.99
2017-05-10T08:18:22.801Z,9.91
2017-05-10T08:19:03.332Z,9.91
2017-05-10T08:19:43.854Z,9.72
2017-05-10T08:20:24.325Z,9.61
2017-05-10T08:21:07.330Z,9.47
2017-05-10T08:21:47.928Z,9.37
2017-05-10T08:22:28.361Z,9.34
2017-05-10T08:23:08.891Z,9.31
2017-05-10T08:23:49.381Z,9.25
2017-05-10T08:24:29.872Z,9.21
2017-05-10T08:25:10.400Z,9.1
2017-05-10T08:25:50.872Z,9
2017-05-10T08:26:31.416Z,9
2017-05-10T08:27:11.884Z,8.99
2017-05-10T08:27:52.413Z,8.74
2017-05-10T08:28:32.891Z,8.74
2017-05-10T08:29:13.418Z,8.52
2017-05-10T08:29:53.887Z,8.55
2017-05-10T08:30:34.509Z,8.63
2017-05-10T08:31:14.965Z,8.69
2017-05-10T08:31:55.408Z,8.87
2017-05-10T08:32:35.923Z,8.89
2017-05-10T08:33:16.450Z,9
2017-05-10T08:33:56.896Z,9.02
2017-05-10T08:34:37.384Z,9.22
2017-05-10T08:35:17.871Z,9.22
2017-05-10T08:35:58.412Z,9.18
2017-05-10T08:36:38.974Z,9.34
2017-05-10T08:37:19.426Z,9.41
2017-05-10T08:37:59.997Z,9.4
2017-05-10T08:38:40.558Z,9.4
2017-05-10T08:39:21.075Z,9.34
2017-05-10T08:40:01.548Z,9.36
2017-05-10T08:40:42.173Z,9.37
2017-05-10T08:41:22.837Z,9.39
2017-05-10T08:42:03.192Z,9.46
2017-05-10T08:42:43.724Z,9.48
2017-05-10T08:43:24.222Z,9.62
2017-05-10T08:44:04.806Z,9.84
2017-05-10T08:44:45.195Z,9.83
2017-05-10T08:45:25.801Z,9.83
2017-05-10T08:46:06.306Z,9.91
2017-05-10T08:46:46.819Z,9.98
2017-05-10T08:47:27.323Z,9.95
2017-05-10T08:48:07.841Z,10.01
2017-05-10T08:48:48.348Z,10.13
2017-05-10T08:49:29.819Z,10.02
2017-05-10T08:50:10.326Z,10.02
2017-05-10T08:50:50.825Z,10.15
2017-05-10T08:51:31.361Z,10.17
2017-05-10T08:52:11.813Z,10.12
2017-05-10T08:52:52.367Z,10.09
2017-05-10T08:53:32.885Z,10.31
2017-05-10T08:54:13.525Z,10.26
2017-05-10T08:54:54.965Z,10.28
2017-05-10T08:55:35.440Z,10.25
2017-05-10T08:56:15.879Z,10.3
2017-05-10T08:56:56.446Z,10.2
2017-05-10T08:57:36.947Z,10.25
2017-05-10T08:58:17.539Z,10.17
2017-05-10T08:58:58.062Z,10.26
2017-05-10T08:59:38.534Z,10.25
2017-05-10T09:00:19.072Z,10.09
2017-05-10T09:00:59.582Z,10.3
2017-05-10T09:01:40.078Z,10.25
2017-05-10T09:02:20.580Z,10.15